Time;durP1;ratioP1;P1;durP2;ratioP2;P2;SDS_P1;SDS_P2;PMS_P1;PMS_P2;Temp;Humidity;BMP_temperature;BMP_pressure;BME280_temperature;BME280_humidity;BME280_pressure;Samples;Min_cycle;Max_cycle;Signal;HPM_P1;HPM_P2
2021/03/26 00:01:17;;;;;;;126.30;59.28;;;0.50;2201.60;;;;;;5005554;28;20030;-64
2021/03/26 00:03:44;;;;;;;148.32;66.28;;;0.50;2201.60;;;;;;5006796;28;20441;-65
2021/03/26 00:06:17;;;;;;;127.25;62.47;;;0.40;2201.60;;;;;;5008410;28;20038;-64
2021/03/26 00:08:43;;;;;;;151.57;71.30;;;0.50;2201.60;;;;;;5006050;28;20029;-64
2021/03/26 00:11:10;;;;;;;126.90;60.28;;;0.40;2201.60;;;;;;5006766;28;20087;-65
2021/03/26 00:13:37;;;;;;;109.68;53.33;;;0.40;2201.60;;;;;;5005871;28;20076;-64
2021/03/26 00:16:04;;;;;;;101.47;46.33;;;0.40;2201.60;;;;;;5005951;28;20858;-65
2021/03/26 00:18:29;;;;;;;99.25;46.25;;;0.40;2201.60;;;;;;5002475;28;20216;-65
2021/03/26 00:20:55;;;;;;;100.45;49.38;;;0.40;2201.60;;;;;;5007344;28;20030;-64
2021/03/26 00:23:21;;;;;;;116.15;55.80;;;0.40;2201.60;;;;;;5006814;28;20105;-64
2021/03/26 00:25:47;;;;;;;98.05;47.65;;;0.40;2201.60;;;;;;5006868;28;20027;-64
2021/03/26 00:28:13;;;;;;;112.38;51.63;;;0.40;2201.60;;;;;;5006417;28;20023;-65
2021/03/26 00:30:39;;;;;;;122.30;56.80;;;0.50;2201.60;;;;;;5006384;28;20018;-64
2021/03/26 00:33:07;;;;;;;117.18;53.88;;;0.50;2201.60;;;;;;5007061;28;20410;-64
2021/03/26 00:35:33;;;;;;;105.88;50.35;;;0.40;2201.60;;;;;;5006938;28;20018;-64
2021/03/26 00:38:00;;;;;;;105.93;48.90;;;0.40;2201.60;;;;;;5007059;28;20049;-64
2021/03/26 00:40:26;;;;;;;103.22;49.17;;;0.40;2201.60;;;;;;4996543;28;20038;-65
2021/03/26 00:42:52;;;;;;;108.45;51.70;;;0.30;2201.60;;;;;;4994915;28;20054;-64
2021/03/26 00:45:31;;;;;;;119.65;54.70;;;0.30;2201.60;;;;;;4999214;28;20030;-64
2021/03/26 00:47:57;;;;;;;109.47;50.58;;;0.30;2201.60;;;;;;4995418;28;20093;-63
2021/03/26 00:50:29;;;;;;;105.65;48.70;;;0.30;2201.60;;;;;;4992992;28;20034;-65
2021/03/26 00:52:57;;;;;;;85.43;40.25;;;0.30;2201.60;;;;;;4993850;28;20069;-64
2021/03/26 00:55:24;;;;;;;75.53;36.50;;;0.40;2201.60;;;;;;4992764;28;20112;-64
2021/03/26 00:57:49;;;;;;;68.38;33.00;;;0.40;2201.60;;;;;;5001009;28;20030;-67
2021/03/26 01:00:19;;;;;;;81.40;40.00;;;0.40;2201.60;;;;;;5002961;28;20025;-68
2021/03/26 01:02:45;;;;;;;122.43;55.95;;;0.40;2201.60;;;;;;5002744;28;20081;-64
2021/03/26 01:05:14;;;;;;;109.35;50.03;;;0.30;2201.60;;;;;;5002335;28;20034;-67
2021/03/26 01:07:40;;;;;;;75.38;38.00;;;0.20;2201.60;;;;;;5003042;28;20490;-64
2021/03/26 01:10:09;;;;;;;61.92;32.83;;;0.00;2201.60;;;;;;5003878;28;20037;-65
2021/03/26 01:12:35;;;;;;;70.50;32.30;;;12.90;2201.60;;;;;;5002041;28;20049;-65
2021/03/26 01:15:02;;;;;;;68.75;33.25;;;13.00;2201.60;;;;;;4994678;28;20066;-65
2021/03/26 01:17:28;;;;;;;74.88;37.38;;;13.10;2201.60;;;;;;4993159;28;20457;-65
2021/03/26 01:19:54;;;;;;;75.88;39.88;;;13.10;2201.60;;;;;;4992537;28;20105;-64
2021/03/26 01:22:20;;;;;;;70.80;34.53;;;13.20;2201.60;;;;;;4995236;28;20081;-65
2021/03/26 01:24:45;;;;;;;65.72;35.03;;;13.30;2201.60;;;;;;4994562;28;20050;-65
2021/03/26 01:27:11;;;;;;;72.22;38.33;;;13.40;2201.60;;;;;;4998721;28;20092;-64
2021/03/26 01:29:37;;;;;;;79.57;38.55;;;13.40;2201.60;;;;;;5012020;28;20394;-63
2021/03/26 01:32:03;;;;;;;96.38;46.47;;;13.40;2201.60;;;;;;5012351;28;20021;-66
2021/03/26 01:34:28;;;;;;;81.43;42.35;;;13.30;2201.60;;;;;;5009369;28;20602;-65
2021/03/26 01:36:54;;;;;;;85.45;41.65;;;13.40;2201.60;;;;;;5002630;28;20184;-64
2021/03/26 01:39:20;;;;;;;79.55;40.33;;;13.40;2201.60;;;;;;5011316;28;20064;-64
2021/03/26 01:41:48;;;;;;;81.72;41.17;;;13.40;2201.60;;;;;;5012022;28;20439;-66
2021/03/26 01:44:18;;;;;;;87.50;42.75;;;13.30;2201.60;;;;;;5011776;28;20030;-64
2021/03/26 01:46:45;;;;;;;102.30;48.30;;;13.30;2201.60;;;;;;5011932;28;20140;-64
2021/03/26 01:49:11;;;;;;;134.88;56.97;;;13.20;2201.60;;;;;;5011571;28;20430;-64
2021/03/26 01:51:41;;;;;;;131.00;55.63;;;13.20;2201.60;;;;;;5011974;28;20029;-64
2021/03/26 01:54:09;;;;;;;100.78;44.00;;;13.20;2201.60;;;;;;5011701;28;20022;-64
2021/03/26 01:56:36;;;;;;;86.53;41.72;;;13.20;2201.60;;;;;;5011467;28;20022;-64
2021/03/26 01:59:02;;;;;;;100.88;46.72;;;13.30;2201.60;;;;;;5011051;28;20129;-66
2021/03/26 02:01:34;;;;;;;92.03;42.90;;;13.30;2201.60;;;;;;5011888;28;20387;-64
2021/03/26 02:04:04;;;;;;;83.53;41.70;;;13.30;2201.60;;;;;;5011811;28;20018;-64
2021/03/26 02:06:37;;;;;;;89.55;42.80;;;13.30;2201.60;;;;;;5011383;28;20026;-64
2021/03/26 02:09:15;;;;;;;65.13;33.65;;;13.40;2201.60;;;;;;5011329;28;20558;-65
2021/03/26 02:11:51;;;;;;;54.25;27.52;;;13.40;2201.60;;;;;;5011482;28;20018;-65
2021/03/26 02:14:24;;;;;;;49.40;25.45;;;13.50;2201.60;;;;;;5010992;28;20026;-64
2021/03/26 02:16:51;;;;;;;51.80;25.58;;;13.60;2201.60;;;;;;5001828;28;20029;-64
2021/03/26 02:19:26;;;;;;;55.22;25.20;;;13.60;2201.60;;;;;;5002144;28;20387;-65
2021/03/26 02:21:52;;;;;;;52.83;24.08;;;13.60;2201.60;;;;;;5010342;28;20499;-64
2021/03/26 02:24:18;;;;;;;51.50;25.77;;;13.60;2201.60;;;;;;5011247;28;20049;-65
2021/03/26 02:26:48;;;;;;;60.20;26.35;;;13.60;2201.60;;;;;;5011123;28;20022;-65
2021/03/26 02:29:24;;;;;;;46.28;23.77;;;13.50;2201.60;;;;;;5011016;28;20611;-65
2021/03/26 02:32:07;;;;;;;50.22;23.40;;;13.60;2201.60;;;;;;5011443;28;20470;-65
2021/03/26 02:34:33;;;;;;;47.55;23.13;;;13.50;2201.60;;;;;;5010944;28;20034;-65
2021/03/26 02:37:03;;;;;;;45.67;24.05;;;13.50;2201.60;;;;;;5011488;28;20041;-65
2021/03/26 02:39:43;;;;;;;46.75;25.88;;;13.60;2201.60;;;;;;5010578;28;20030;-64
2021/03/26 02:42:31;;;;;;;50.50;26.17;;;13.70;2201.60;;;;;;5011299;28;20054;-66
2021/03/26 02:45:27;;;;;;;47.78;25.70;;;13.70;2201.60;;;;;;5011538;28;20030;-65
2021/03/26 02:47:56;;;;;;;52.20;26.25;;;13.70;2201.60;;;;;;5011012;28;20059;-65
2021/03/26 02:50:49;;;;;;;60.80;30.30;;;13.70;2201.60;;;;;;5010818;28;20022;-64
2021/03/26 02:53:49;;;;;;;50.58;27.02;;;13.70;2201.60;;;;;;5011393;28;20034;-65
2021/03/26 02:56:49;;;;;;;61.17;30.90;;;38.40;2201.60;;;;;;5010934;28;20030;-64
2021/03/26 02:59:24;;;;;;;53.55;26.98;;;38.40;2201.60;;;;;;5008076;28;20030;-64
2021/03/26 03:01:54;;;;;;;58.88;28.95;;;38.40;2201.60;;;;;;5011066;28;20038;-65
2021/03/26 03:04:23;;;;;;;57.13;30.45;;;38.50;2201.60;;;;;;5010465;28;20034;-64
2021/03/26 03:06:52;;;;;;;51.28;28.40;;;38.50;2201.60;;;;;;5008901;28;20459;-65
2021/03/26 03:09:20;;;;;;;53.75;28.27;;;38.50;2201.60;;;;;;5010560;28;20026;-66
2021/03/26 03:12:02;;;;;;;55.08;29.13;;;38.50;2201.60;;;;;;5011049;28;20080;-64
2021/03/26 03:14:40;;;;;;;83.22;35.90;;;38.50;2201.60;;;;;;5010929;28;20025;-64
2021/03/26 03:17:21;;;;;;;69.25;31.90;;;38.50;2201.60;;;;;;5011029;28;20026;-64
2021/03/26 03:20:05;;;;;;;63.88;31.27;;;38.50;2201.60;;;;;;5010416;28;20018;-64
2021/03/26 03:22:41;;;;;;;70.38;32.75;;;38.50;2201.60;;;;;;5010756;28;20040;-64
2021/03/26 03:25:14;;;;;;;69.20;32.42;;;38.60;2201.60;;;;;;5011231;28;20030;-64
2021/03/26 03:27:51;;;;;;;75.40;32.83;;;38.60;2201.60;;;;;;5014350;28;20034;-64
2021/03/26 03:30:47;;;;;;;66.28;31.13;;;38.60;2201.60;;;;;;5014003;28;20033;-64
2021/03/26 03:33:35;;;;;;;74.50;33.17;;;38.60;2201.60;;;;;;5008500;28;20490;-64
2021/03/26 03:36:03;;;;;;;69.03;33.20;;;38.60;2201.60;;;;;;5014387;28;20022;-64
2021/03/26 03:38:35;;;;;;;62.25;31.80;;;38.50;2201.60;;;;;;5013794;28;20048;-66
2021/03/26 03:41:04;;;;;;;67.13;30.30;;;38.50;2201.60;;;;;;5014418;28;20088;-65
2021/03/26 03:43:41;;;;;;;78.07;36.85;;;38.50;2201.60;;;;;;5013980;28;20030;-65
2021/03/26 03:46:19;;;;;;;65.82;33.78;;;38.50;2201.60;;;;;;5014133;28;20478;-64
2021/03/26 03:49:03;;;;;;;68.00;34.83;;;38.50;2201.60;;;;;;5013814;28;20107;-68
2021/03/26 03:51:39;;;;;;;67.13;32.13;;;38.50;2201.60;;;;;;5013921;28;20026;-66
2021/03/26 03:54:10;;;;;;;57.58;28.52;;;38.50;2201.60;;;;;;5014301;28;20065;-65
2021/03/26 03:56:56;;;;;;;;;;;38.50;2201.60;;;;;;5014668;28;20387;-65
2021/03/26 03:59:29;;;;;;;53.80;27.08;;;38.60;2201.60;;;;;;5002239;28;19905;-65
2021/03/26 04:02:05;;;;;;;46.88;25.48;;;38.70;2201.60;;;;;;5014132;28;20037;-65
2021/03/26 04:04:42;;;;;;;47.90;25.13;;;38.90;2201.60;;;;;;5013584;28;20037;-65
2021/03/26 04:07:13;;;;;;;47.78;24.52;;;39.00;2201.60;;;;;;5013422;28;20133;-65
2021/03/26 04:09:46;;;;;;;46.65;25.17;;;39.10;2201.60;;;;;;5013547;28;20026;-64
2021/03/26 04:12:16;;;;;;;45.33;25.33;;;39.10;2201.60;;;;;;5013787;28;20406;-64
2021/03/26 04:15:20;;;;;;;43.63;24.10;;;39.10;2201.60;;;;;;5013604;28;20104;-65
2021/03/26 04:18:07;;;;;;;45.97;23.33;;;39.10;2201.60;;;;;;5013064;28;20475;-65
2021/03/26 04:20:34;;;;;;;42.58;22.95;;;39.10;2201.60;;;;;;5013348;28;20022;-64
2021/03/26 04:23:10;;;;;;;40.63;21.98;;;39.10;2201.60;;;;;;5013610;28;20026;-65
2021/03/26 04:25:40;;;;;;;57.47;28.50;;;39.10;2201.60;;;;;;5013677;28;20431;-64
2021/03/26 04:28:20;;;;;;;54.47;26.45;;;39.10;2201.60;;;;;;5013547;28;20053;-64
2021/03/26 04:30:55;;;;;;;42.47;22.90;;;39.10;2201.60;;;;;;5012854;28;20105;-65
2021/03/26 04:33:21;;;;;;;53.25;26.95;;;39.10;2201.60;;;;;;5013407;28;20026;-65
2021/03/26 04:35:50;;;;;;;60.58;29.58;;;39.10;2201.60;;;;;;5013272;28;20026;-64
2021/03/26 04:38:50;;;;;;;60.22;29.50;;;39.00;2201.60;;;;;;5012192;28;20033;-64
2021/03/26 04:41:31;;;;;;;62.38;29.50;;;38.90;2201.60;;;;;;4990865;28;20053;-64
2021/03/26 04:44:26;;;;;;;65.40;33.08;;;38.80;2201.60;;;;;;5013166;28;20045;-64
2021/03/26 04:47:06;;;;;;;57.55;30.13;;;38.70;2201.60;;;;;;4999647;28;20029;-64
2021/03/26 04:49:49;;;;;;;66.45;31.65;;;38.60;2201.60;;;;;;5012493;28;20521;-64
2021/03/26 04:52:32;;;;;;;70.68;35.65;;;38.40;2201.60;;;;;;5012860;28;20057;-64
2021/03/26 04:55:21;;;;;;;77.00;37.65;;;13.60;2201.60;;;;;;5012701;28;20032;-64
2021/03/26 04:57:54;;;;;;;67.40;35.45;;;13.30;2201.60;;;;;;5012879;28;20072;-64
2021/03/26 05:00:28;;;;;;;61.83;30.50;;;13.00;2201.60;;;;;;5012127;28;20398;-64
2021/03/26 05:03:06;;;;;;;58.60;30.30;;;0.00;2201.60;;;;;;5011511;28;20391;-64
2021/03/26 05:05:37;;;;;;;62.33;31.17;;;0.40;2201.60;;;;;;5012414;28;20045;-66
2021/03/26 05:08:05;;;;;;;60.17;31.02;;;0.80;2201.60;;;;;;5012440;28;20076;-69
2021/03/26 05:10:34;;;;;;;75.90;35.70;;;25.80;2201.60;;;;;;5008502;28;20037;-65
2021/03/26 05:13:08;;;;;;;73.43;37.35;;;26.20;2201.60;;;;;;5012786;28;20132;-64
2021/03/26 05:16:12;;;;;;;81.50;40.70;;;26.50;2201.60;;;;;;5012565;28;20422;-65
2021/03/26 05:18:44;;;;;;;52.83;26.48;;;51.50;2227.20;;;;;;4975666;28;20062;-65
2021/03/26 05:21:23;;;;;;;43.85;25.25;;;51.80;2227.20;;;;;;5012052;28;20022;-65
2021/03/26 05:24:00;;;;;;;42.80;24.25;;;51.90;2227.20;;;;;;5012578;28;20050;-68
2021/03/26 05:26:27;;;;;;;41.03;23.95;;;51.90;2227.20;;;;;;5002715;28;20383;-65
2021/03/26 05:28:53;;;;;;;44.95;25.15;;;51.80;2227.20;;;;;;5011677;28;20108;-66
2021/03/26 05:31:42;;;;;;;44.60;26.10;;;76.80;2227.20;;;;;;5011940;28;20391;-65
2021/03/26 05:34:22;;;;;;;85.05;46.17;;;77.20;2201.60;;;;;;5011879;28;20053;-64
2021/03/26 05:37:06;;;;;;;45.25;26.33;;;77.70;2099.20;;;;;;5003699;28;20029;-65
2021/03/26 05:39:34;;;;;;;38.55;24.05;;;102.70;1996.80;;;;;;5011535;28;20021;-65
2021/03/26 05:42:28;;;;;;;48.22;28.42;;;102.90;1945.60;;;;;;5011550;28;20052;-66
2021/03/26 05:45:15;;;;;;;40.03;25.63;;;103.30;1920.00;;;;;;5011734;28;20160;-65
2021/03/26 05:47:44;;;;;;;39.45;25.30;;;128.40;1894.40;;;;;;5011617;28;20037;-64
2021/03/26 05:50:52;;;;;;;38.35;24.15;;;128.70;1868.80;;;;;;5011331;28;20029;-65
2021/03/26 05:54:05;;;;;;;36.85;23.63;;;128.50;1894.40;;;;;;5011730;28;20475;-66
2021/03/26 05:57:11;;;;;;;37.58;22.65;;;153.70;1843.20;;;;;;4979096;28;20395;-67
2021/03/26 06:00:07;;;;;;;33.78;22.00;;;179.30;1740.80;;;;;;5011436;28;20024;-64
2021/03/26 06:02:50;;;;;;;33.55;21.58;;;205.00;1612.80;;;;;;5004809;28;20028;-66
2021/03/26 06:05:58;;;;;;;33.25;22.52;;;205.70;1536.00;;;;;;5011375;28;20029;-66
2021/03/26 06:08:55;;;;;;;33.83;20.77;;;230.60;1484.80;;;;;;5011594;28;20418;-65
2021/03/26 06:11:27;;;;;;;34.13;21.67;;;231.00;1433.60;;;;;;5011594;28;20022;-64
2021/03/26 06:14:04;;;;;;;34.55;22.30;;;256.50;1382.40;;;;;;5011618;28;20033;-64
2021/03/26 06:16:35;;;;;;;34.70;23.30;;;281.80;1382.40;;;;;;5011474;28;20426;-64
2021/03/26 06:19:23;;;;;;;;;;;282.30;1331.20;;;;;;5011837;28;20029;-65
2021/03/26 06:22:18;;;;;;;45.40;27.13;;;307.30;1305.60;;;;;;5011396;28;19913;-67
2021/03/26 06:24:46;;;;;;;41.03;26.52;;;307.80;1280.00;;;;;;5011362;28;20395;-65
2021/03/26 06:27:19;;;;;;;39.50;24.33;;;333.20;1254.40;;;;;;5011161;28;20079;-66
2021/03/26 06:29:56;;;;;;;36.00;24.20;;;333.60;1228.80;;;;;;5010855;28;20041;-65
2021/03/26 06:32:54;;;;;;;35.13;24.15;;;358.90;1177.60;;;;;;5011676;28;20402;-67
2021/03/26 06:35:25;;;;;;;32.03;22.02;;;358.80;1152.00;;;;;;5011447;28;20108;-64
2021/03/26 06:38:36;;;;;;;29.27;21.35;;;333.30;1203.20;;;;;;5011347;28;20387;-70
2021/03/26 06:41:30;;;;;;;30.48;21.73;;;358.40;1177.60;;;;;;5011038;28;20060;-65
2021/03/26 06:44:38;;;;;;;31.75;21.75;;;384.90;1075.20;;;;;;5011270;28;20109;-66
2021/03/26 06:47:16;;;;;;;28.00;20.67;;;435.80;1024.00;;;;;;5009644;28;20089;-67
2021/03/26 06:49:48;;;;;;;30.50;21.95;;;435.50;1024.00;;;;;;5010928;28;20029;-67
2021/03/26 06:52:41;;;;;;;37.28;25.95;;;435.50;1024.00;;;;;;5011398;28;20483;-64
2021/03/26 06:55:19;;;;;;;32.55;22.67;;;435.90;998.40;;;;;;5010671;28;20442;-67
2021/03/26 06:58:05;;;;;;;32.30;23.48;;;486.40;972.80;;;;;;5008580;28;20026;-64
2021/03/26 07:00:30;;;;;;;35.75;26.98;;;512.00;921.60;;;;;;5002005;28;20056;-66
2021/03/26 07:03:17;;;;;;;35.03;24.60;;;512.50;896.00;;;;;;4995434;28;20495;-66
2021/03/26 07:05:43;;;;;;;37.55;26.73;;;512.70;870.40;;;;;;4998831;28;20076;-65
2021/03/26 07:08:32;;;;;;;51.55;35.90;;;538.50;870.40;;;;;;5001613;28;20042;-65
2021/03/26 07:11:17;;;;;;;32.58;24.25;;;538.40;844.80;;;;;;5013915;28;20092;-66
2021/03/26 07:14:17;;;;;;;32.05;25.52;;;563.40;870.40;;;;;;5014636;28;20054;-66
2021/03/26 07:17:07;;;;;;;30.77;24.60;;;538.50;844.80;;;;;;5003787;28;20049;-65
2021/03/26 07:19:45;;;;;;;32.20;25.97;;;589.40;819.20;;;;;;4999575;28;20026;-65
2021/03/26 07:22:29;;;;;;;33.72;28.77;;;614.90;793.60;;;;;;5012785;28;20061;-70
2021/03/26 07:25:12;;;;;;;34.38;27.38;;;640.20;768.00;;;;;;5014161;28;20022;-65
2021/03/26 07:28:23;;;;;;;32.60;26.15;;;665.70;742.40;;;;;;4997792;28;20089;-65
2021/03/26 07:31:12;;;;;;;34.42;27.80;;;640.20;742.40;;;;;;5012799;28;20038;-66
2021/03/26 07:33:52;;;;;;;29.98;25.58;;;640.70;716.80;;;;;;5010772;28;20390;-65
2021/03/26 07:36:47;;;;;;;27.15;23.27;;;640.30;716.80;;;;;;5013742;28;20140;-65
2021/03/26 07:39:29;;;;;;;29.85;22.92;;;640.60;716.80;;;;;;4988948;28;20431;-66
2021/03/26 07:42:28;;;;;;;27.48;21.58;;;666.20;768.00;;;;;;5001670;28;20578;-66
2021/03/26 07:45:17;;;;;;;25.42;22.25;;;666.30;768.00;;;;;;5001191;28;20030;-65
2021/03/26 07:47:48;;;;;;;28.38;23.38;;;666.50;742.40;;;;;;5013657;28;20030;-65
2021/03/26 07:50:33;;;;;;;27.17;23.75;;;666.50;742.40;;;;;;5013784;28;20168;-65
2021/03/26 07:53:19;;;;;;;27.08;22.05;;;666.30;768.00;;;;;;5013259;28;20578;-65
2021/03/26 07:56:20;;;;;;;26.40;22.02;;;666.00;768.00;;;;;;5013704;28;20062;-65
2021/03/26 07:59:04;;;;;;;;;;;691.60;716.80;;;;;;4981543;28;20503;-65
2021/03/26 08:01:35;;;;;;;47.03;39.13;;;666.30;768.00;;;;;;5013189;28;20023;-65
2021/03/26 08:04:35;;;;;;;40.97;35.60;;;666.30;742.40;;;;;;5013538;28;20030;-65
2021/03/26 08:07:39;;;;;;;21.45;18.58;;;691.40;742.40;;;;;;5012998;28;20025;-67
2021/03/26 08:10:19;;;;;;;25.08;21.30;;;717.60;716.80;;;;;;5013064;28;20029;-66
2021/03/26 08:13:04;;;;;;;29.50;23.58;;;691.70;716.80;;;;;;5006265;28;20022;-66
2021/03/26 08:15:53;;;;;;;23.48;20.02;;;717.50;716.80;;;;;;4999719;28;20033;-65
2021/03/26 08:18:51;;;;;;;24.50;20.30;;;743.20;716.80;;;;;;4985534;28;20043;-65
2021/03/26 08:21:38;;;;;;;23.50;19.17;;;768.80;665.60;;;;;;5012994;28;20034;-65
2021/03/26 08:24:23;;;;;;;22.25;19.52;;;768.90;665.60;;;;;;5012434;28;20101;-66
2021/03/26 08:27:13;;;;;;;20.60;17.25;;;819.20;665.60;;;;;;5004580;28;20030;-66
2021/03/26 08:30:10;;;;;;;34.65;27.02;;;845.70;614.40;;;;;;4996530;28;20383;-66
2021/03/26 08:32:49;;;;;;;18.85;16.52;;;845.30;640.00;;;;;;4999643;28;20019;-65
2021/03/26 08:35:30;;;;;;;20.65;17.50;;;896.30;588.80;;;;;;4996468;28;20030;-66
2021/03/26 08:38:07;;;;;;;19.02;16.00;;;871.00;588.80;;;;;;4999632;28;20037;-66
2021/03/26 08:40:58;;;;;;;20.67;16.88;;;871.20;588.80;;;;;;4999590;28;20030;-66
2021/03/26 08:43:26;;;;;;;19.23;16.42;;;922.40;563.20;;;;;;4997719;28;20043;-66
2021/03/26 08:46:23;;;;;;;17.95;15.57;;;947.60;537.60;;;;;;5009561;28;20443;-67
2021/03/26 08:48:56;;;;;;;18.45;16.30;;;922.00;563.20;;;;;;5001507;28;20042;-65
2021/03/26 08:51:47;;;;;;;21.65;18.80;;;948.10;537.60;;;;;;5007146;28;20038;-65
2021/03/26 08:54:43;;;;;;;21.33;18.67;;;972.90;537.60;;;;;;5000329;28;20523;-66
2021/03/26 08:57:29;;;;;;;18.63;16.00;;;998.80;537.60;;;;;;5002912;28;20115;-66
2021/03/26 09:00:35;;;;;;;19.77;16.60;;;973.30;537.60;;;;;;5008300;28;20089;-66
2021/03/26 09:03:01;;;;;;;16.75;14.95;;;973.30;537.60;;;;;;5004583;28;20022;-68
2021/03/26 09:05:48;;;;;;;18.55;15.98;;;1024.20;512.00;;;;;;5006816;28;20026;-68
2021/03/26 09:08:54;;;;;;;19.45;16.50;;;998.70;537.60;;;;;;5005753;28;20478;-65
2021/03/26 09:11:41;;;;;;;22.45;20.02;;;947.90;512.00;;;;;;4996751;28;20046;-67
2021/03/26 09:14:13;;;;;;;18.10;15.55;;;998.50;537.60;;;;;;4995099;28;20022;-66
2021/03/26 09:16:50;;;;;;;17.45;14.23;;;1024.30;512.00;;;;;;5003703;28;20022;-66
2021/03/26 09:19:28;;;;;;;15.02;13.23;;;1050.40;512.00;;;;;;5005113;28;20072;-66
2021/03/26 09:22:11;;;;;;;18.73;16.42;;;1076.10;486.40;;;;;;5000897;28;20105;-72
2021/03/26 09:24:40;;;;;;;15.32;12.23;;;1126.40;512.00;;;;;;4992927;28;20072;-66
2021/03/26 09:27:20;;;;;;;16.17;12.85;;;1126.50;486.40;;;;;;5004314;28;20053;-67
2021/03/26 09:30:06;;;;;;;14.55;12.77;;;1152.50;460.80;;;;;;5005464;28;20491;-66
2021/03/26 09:32:43;;;;;;;17.27;13.73;;;1177.80;435.20;;;;;;5005815;28;20053;-66
2021/03/26 09:35:18;;;;;;;16.45;13.40;;;1203.20;460.80;;;;;;5007532;28;20026;-67
2021/03/26 09:37:46;;;;;;;17.27;15.48;;;1203.70;435.20;;;;;;5001332;28;20223;-69
2021/03/26 09:40:21;;;;;;;15.70;12.80;;;1203.70;460.80;;;;;;5005087;28;20029;-66
2021/03/26 09:43:16;;;;;;;15.82;12.73;;;1228.80;460.80;;;;;;4998910;28;20050;-68
2021/03/26 09:46:03;;;;;;;14.68;12.27;;;1229.00;460.80;;;;;;4982917;28;20411;-67
2021/03/26 09:48:50;;;;;;;21.65;17.20;;;1229.50;460.80;;;;;;5002536;28;20049;-65
2021/03/26 09:51:25;;;;;;;16.45;13.48;;;1229.70;460.80;;;;;;4995100;28;20065;-66
2021/03/26 09:53:56;;;;;;;15.30;12.50;;;1229.20;460.80;;;;;;4994366;28;20052;-66
2021/03/26 09:56:40;;;;;;;25.48;21.58;;;1229.30;460.80;;;;;;5001114;28;20022;-66
2021/03/26 09:59:37;;;;;;;11.40;10.18;;;1204.10;435.20;;;;;;5008958;28;20129;-66
2021/03/26 10:02:09;;;;;;;12.57;10.90;;;1203.60;435.20;;;;;;5010885;28;20387;-66
2021/03/26 10:04:44;;;;;;;11.40;9.88;;;1228.90;460.80;;;;;;5011703;28;20049;-65
2021/03/26 10:07:33;;;;;;;11.88;10.27;;;1152.20;435.20;;;;;;4995757;28;20026;-65
2021/03/26 10:12:55;;;;;;;12.30;9.70;;;1177.60;435.20;;;;;;5004225;28;20033;-66
2021/03/26 10:15:31;;;;;;;11.65;9.38;;;1203.90;435.20;;;;;;5004399;28;20029;-65
2021/03/26 10:18:06;;;;;;;13.10;9.40;;;1203.60;435.20;;;;;;5006929;28;20364;-66
2021/03/26 10:20:51;;;;;;;14.98;11.68;;;1178.10;409.60;;;;;;4996554;28;20030;-65
2021/03/26 10:23:31;;;;;;;11.40;9.10;;;1203.30;435.20;;;;;;5002294;28;20078;-65
2021/03/26 10:25:59;;;;;;;;;;;1203.30;435.20;;;;;;4995201;28;20064;-65
2021/03/26 10:28:34;;;;;;;10.27;9.18;;;1178.30;409.60;;;;;;4992008;28;19913;-65
2021/03/26 10:31:13;;;;;;;13.13;9.93;;;1177.60;409.60;;;;;;5005614;28;20160;-65
2021/03/26 10:33:50;;;;;;;12.95;10.60;;;1178.00;409.60;;;;;;4999834;28;20097;-65
2021/03/26 10:36:33;;;;;;;16.67;12.43;;;1204.10;435.20;;;;;;4994137;28;20049;-65
2021/03/26 10:39:11;;;;;;;12.15;10.07;;;1228.80;460.80;;;;;;5010766;28;20022;-65
2021/03/26 10:42:10;;;;;;;12.20;10.25;;;1229.30;460.80;;;;;;5010901;28;20038;-65
2021/03/26 10:45:06;;;;;;;14.02;11.43;;;1203.30;435.20;;;;;;5011147;28;20029;-65
2021/03/26 10:47:40;;;;;;;11.90;9.65;;;1228.90;460.80;;;;;;5010486;28;20052;-66
2021/03/26 10:50:12;;;;;;;11.55;9.60;;;1228.90;460.80;;;;;;5009341;28;20084;-65
2021/03/26 10:52:44;;;;;;;11.90;10.27;;;1229.70;460.80;;;;;;4999888;28;20023;-66
2021/03/26 10:55:13;;;;;;;14.73;10.45;;;1229.30;460.80;;;;;;4997107;28;20088;-67
2021/03/26 10:57:42;;;;;;;16.20;12.60;;;1228.80;460.80;;;;;;5002885;28;20097;-65
2021/03/26 11:00:14;;;;;;;13.05;10.13;;;1228.80;460.80;;;;;;5006624;28;20032;-65
2021/03/26 11:02:52;;;;;;;14.15;10.23;;;1203.70;435.20;;;;;;5001733;28;20044;-65
2021/03/26 11:05:36;;;;;;;13.13;10.20;;;1075.60;460.80;;;;;;5010731;28;20056;-65
2021/03/26 11:08:02;;;;;;;13.27;10.27;;;947.60;486.40;;;;;;5010908;28;20026;-65
2021/03/26 11:10:36;;;;;;;14.73;10.05;;;870.50;537.60;;;;;;5010452;28;20026;-66
2021/03/26 11:13:29;;;;;;;15.55;12.43;;;793.70;563.20;;;;;;5010915;28;20125;-65
2021/03/26 11:16:22;;;;;;;20.40;16.52;;;716.80;640.00;;;;;;5005370;28;20133;-65
2021/03/26 11:18:59;;;;;;;20.52;16.17;;;665.80;665.60;;;;;;5001246;28;20033;-64
2021/03/26 11:21:34;;;;;;;15.95;11.88;;;615.20;691.20;;;;;;5005489;28;20030;-64
2021/03/26 11:24:05;;;;;;;18.83;14.23;;;614.60;716.80;;;;;;4993019;28;20033;-65
2021/03/26 11:26:33;;;;;;;18.05;13.57;;;589.00;742.40;;;;;;5005374;28;20141;-65
2021/03/26 11:29:18;;;;;;;17.02;13.38;;;563.30;742.40;;;;;;4996365;28;20427;-65
2021/03/26 11:31:59;;;;;;;17.80;13.00;;;538.10;768.00;;;;;;4993269;28;20105;-65
2021/03/26 11:34:34;;;;;;;15.63;11.43;;;537.70;768.00;;;;;;4993133;28;20546;-65
2021/03/26 11:37:10;;;;;;;13.02;9.57;;;537.80;793.60;;;;;;4989614;28;20076;-65
2021/03/26 11:39:53;;;;;;;15.07;10.85;;;537.60;793.60;;;;;;4998046;28;20046;-66
2021/03/26 11:42:38;;;;;;;12.90;9.55;;;512.80;768.00;;;;;;5008301;28;20565;-65
2021/03/26 11:45:13;;;;;;;13.55;9.05;;;512.50;768.00;;;;;;5003333;28;20027;-65
2021/03/26 11:47:41;;;;;;;15.02;9.38;;;512.60;768.00;;;;;;5011847;28;20032;-69
2021/03/26 11:50:35;;;;;;;14.15;9.45;;;512.40;742.40;;;;;;5013707;28;20093;-65
2021/03/26 11:53:33;;;;;;;15.07;9.82;;;487.10;768.00;;;;;;5013799;28;20117;-65
2021/03/26 11:55:58;;;;;;;12.38;8.68;;;486.90;819.20;;;;;;5009797;28;20038;-67
2021/03/26 11:59:11;;;;;;;14.43;10.05;;;487.10;793.60;;;;;;5011664;28;20030;-67
2021/03/26 12:02:08;;;;;;;15.02;10.15;;;487.10;793.60;;;;;;5011546;28;20064;-68
2021/03/26 12:04:48;;;;;;;15.50;10.15;;;487.30;819.20;;;;;;5013782;28;20057;-67
2021/03/26 12:07:27;;;;;;;14.55;10.45;;;487.30;793.60;;;;;;5010048;28;20018;-66
2021/03/26 12:09:59;;;;;;;15.45;10.95;;;487.30;768.00;;;;;;5012981;28;20437;-67
2021/03/26 12:12:44;;;;;;;17.60;11.57;;;487.00;793.60;;;;;;5013435;28;20022;-66
2021/03/26 12:15:29;;;;;;;42.20;29.75;;;486.60;819.20;;;;;;5012992;28;20026;-65
2021/03/26 12:18:25;;;;;;;15.48;9.65;;;486.60;819.20;;;;;;5006893;28;20109;-67
2021/03/26 12:21:05;;;;;;;23.35;14.90;;;486.90;793.60;;;;;;5011846;28;20490;-67
2021/03/26 12:23:44;;;;;;;15.38;10.52;;;486.60;844.80;;;;;;5013607;28;20124;-68
2021/03/26 12:26:35;;;;;;;16.13;10.73;;;486.50;844.80;;;;;;5011452;28;20438;-67
2021/03/26 12:29:16;;;;;;;;;;;486.40;844.80;;;;;;5012650;28;20029;-67
2021/03/26 12:31:48;;;;;;;15.32;11.65;;;486.50;844.80;;;;;;5005228;28;19909;-69
2021/03/26 12:34:25;;;;;;;16.13;11.52;;;461.60;844.80;;;;;;5001360;28;20033;-66
2021/03/26 12:37:05;;;;;;;17.35;12.40;;;461.50;844.80;;;;;;5003517;28;20029;-66
2021/03/26 12:39:35;;;;;;;17.13;11.55;;;461.30;870.40;;;;;;5005290;28;20025;-65
2021/03/26 12:42:16;;;;;;;18.95;12.60;;;461.40;870.40;;;;;;5006575;28;20045;-66
2021/03/26 12:44:53;;;;;;;;;;;461.30;896.00;;;;;;5009969;28;20030;-66
2021/03/26 12:47:32;;;;;;;26.08;19.15;;;461.30;870.40;;;;;;4999652;28;20222;-66
2021/03/26 12:50:16;;;;;;;14.20;10.17;;;461.40;870.40;;;;;;4994637;28;20092;-66
2021/03/26 12:52:48;;;;;;;16.58;12.20;;;461.50;870.40;;;;;;5007675;28;20328;-65
2021/03/26 12:55:36;;;;;;;13.32;9.50;;;461.50;870.40;;;;;;5010318;28;20438;-66
2021/03/26 12:58:21;;;;;;;14.50;11.23;;;486.50;870.40;;;;;;5005726;28;20077;-65
2021/03/26 13:01:05;;;;;;;13.85;9.15;;;486.80;844.80;;;;;;5012247;28;20047;-68
2021/03/26 13:03:44;;;;;;;13.23;8.75;;;487.30;819.20;;;;;;4998162;28;20018;-68
2021/03/26 13:06:19;;;;;;;13.38;9.65;;;537.90;768.00;;;;;;5012437;28;20036;-68
2021/03/26 13:08:50;;;;;;;14.55;10.65;;;614.80;716.80;;;;;;5010441;28;20053;-67